Time;durP1;ratioP1;P1;durP2;ratioP2;P2;SDS_P1;SDS_P2;PMS_P1;PMS_P2;Temp;Humidity;BMP_temperature;BMP_pressure;BME280_temperature;BME280_humidity;BME280_pressure;Samples;Min_cycle;Max_cycle;Signal;HPM_P1;HPM_P2
2021/11/07 00:00:37;;;;;;;40.10;5.35;;;;;;;11.67;86.55;101623.16;5038316;28;20025;-48
2021/11/07 00:03:10;;;;;;;48.80;7.85;;;;;;;11.69;86.86;101604.91;5053794;28;20029;-51
2021/11/07 00:05:42;;;;;;;39.90;7.47;;;;;;;11.73;86.34;101612.50;5053784;28;20047;-51
2021/11/07 00:08:20;;;;;;;44.13;6.85;;;;;;;11.74;86.82;101618.72;5053790;28;20073;-48
2021/11/07 00:10:54;;;;;;;58.60;8.43;;;;;;;11.78;86.90;101612.00;5053444;28;20116;-48
2021/11/07 00:13:25;;;;;;;45.42;6.75;;;;;;;11.78;87.14;101609.31;5053885;28;20365;-49
2021/11/07 00:15:52;;;;;;;41.70;7.38;;;;;;;11.81;87.17;101614.34;5053510;28;20043;-48
2021/11/07 00:18:21;;;;;;;53.20;7.90;;;;;;;11.79;87.35;101617.19;5053448;28;20056;-50
2021/11/07 00:23:25;;;;;;;53.55;9.60;;;;;;;11.80;87.61;101608.13;5053391;28;20391;-48
2021/11/07 00:25:58;;;;;;;49.10;7.82;;;;;;;11.82;87.52;101607.94;5053633;28;20059;-48
2021/11/07 00:28:47;;;;;;;43.75;8.98;;;;;;;11.80;87.60;101602.72;5053476;28;20120;-49
2021/11/07 00:31:31;;;;;;;50.25;8.45;;;;;;;11.82;87.52;101607.94;5053140;28;20128;-49
2021/11/07 00:36:42;;;;;;;54.58;8.52;;;;;;;11.86;87.30;101606.63;5052969;28;20480;-48
2021/11/07 00:39:16;;;;;;;47.38;8.68;;;;;;;11.86;87.47;101596.66;5053131;28;20052;-48
2021/11/07 00:42:07;;;;;;;43.03;8.07;;;;;;;11.88;87.29;101610.00;5048197;28;20043;-52
2021/11/07 00:44:40;;;;;;;46.35;7.88;;;;;;;11.87;87.62;101605.59;5053176;28;20162;-49
2021/11/07 00:47:22;;;;;;;36.45;8.20;;;;;;;11.88;87.63;101604.59;5052564;28;20040;-49
2021/11/07 00:49:51;;;;;;;47.22;9.07;;;;;;;11.87;87.98;101594.81;5052999;28;20467;-48
2021/11/07 00:52:37;;;;;;;36.65;9.35;;;;;;;11.88;87.46;101587.59;5053137;28;20033;-48
2021/11/07 00:55:42;;;;;;;63.10;9.57;;;;;;;11.87;87.94;101581.31;5053139;28;20091;-52
2021/11/07 00:58:07;;;;;;;53.88;10.55;;;;;;;11.89;87.59;101582.00;5049386;28;20193;-51
2021/11/07 01:02:59;;;;;;;44.03;9.05;;;;;;;11.86;88.55;101587.75;5052480;28;20041;-49
2021/11/07 01:05:27;;;;;;;48.55;9.32;;;;;;;11.87;88.34;101586.72;5052526;28;20045;-49
2021/11/07 01:07:54;;;;;;;49.05;9.60;;;;;;;11.88;88.92;101580.31;5052539;28;20057;-48
2021/11/07 01:10:19;;;;;;;52.05;9.80;;;;;;;11.84;89.58;101573.53;5052292;28;20384;-49
2021/11/07 01:12:45;;;;;;;56.97;10.40;;;;;;;11.82;90.22;101568.34;5052763;28;20045;-48
2021/11/07 01:15:11;;;;;;;49.13;9.68;;;;;;;11.76;90.26;101568.19;5052284;28;20044;-50
2021/11/07 01:17:36;;;;;;;53.08;10.57;;;;;;;11.70;90.95;101566.19;5034388;28;20057;-51
2021/11/07 01:20:05;;;;;;;58.53;11.32;;;;;;;11.69;91.17;101583.34;5052297;28;20175;-52
2021/11/07 01:25:04;;;;;;;54.85;11.38;;;;;;;11.67;91.13;101556.56;5052481;28;20040;-49
2021/11/07 01:27:39;;;;;;;45.92;11.35;;;;;;;11.68;90.39;101571.72;5052661;28;20037;-51
2021/11/07 01:30:08;;;;;;;48.72;10.93;;;;;;;11.73;90.46;101560.44;5052419;28;20065;-48
2021/11/07 01:32:44;;;;;;;60.95;11.15;;;;;;;11.71;90.83;101575.94;5051325;28;20029;-49
2021/11/07 01:38:24;;;;;;;58.30;11.48;;;;;;;11.74;90.58;101575.59;5052643;28;20048;-48
2021/11/07 01:40:30;;;;;;;60.80;10.30;;;;;;;11.82;89.82;101567.47;5044700;28;20029;-49
2021/11/07 01:42:57;;;;;;;45.85;8.90;;;;;;;11.86;89.38;101571.56;5052224;28;20438;-48
2021/11/07 01:45:30;;;;;;;44.08;8.80;;;;;;;11.88;89.43;101566.00;5052479;28;20024;-48
2021/11/07 01:48:18;;;;;;;34.72;8.43;;;;;;;11.91;88.67;101560.25;5052776;28;20398;-48
2021/11/07 01:50:52;;;;;;;37.72;8.73;;;;;;;11.92;88.02;101557.38;5052664;28;20032;-50
2021/11/07 01:53:24;;;;;;;34.80;7.93;;;;;;;11.94;88.16;101547.25;5052002;28;20086;-49
2021/11/07 01:55:51;;;;;;;44.42;8.25;;;;;;;11.92;88.07;101560.06;5052490;28;20025;-51
2021/11/07 01:58:16;;;;;;;31.25;8.52;;;;;;;11.93;88.01;101548.28;5053048;28;20471;-48
2021/11/07 02:00:42;;;;;;;37.28;8.05;;;;;;;11.94;88.08;101559.91;5055638;28;20029;-48
2021/11/07 02:03:08;;;;;;;42.30;7.80;;;;;;;11.96;87.91;101541.69;5058648;28;20025;-49
2021/11/07 02:05:34;;;;;;;42.30;10.27;;;;;;;11.91;88.13;101550.31;5059543;28;20044;-50
2021/11/07 02:07:59;;;;;;;42.75;9.18;;;;;;;11.90;88.25;101532.44;5057942;28;20476;-51
2021/11/07 02:10:25;;;;;;;40.17;8.32;;;;;;;11.90;87.94;101518.09;5055657;28;20029;-49
2021/11/07 02:12:50;;;;;;;43.83;7.95;;;;;;;11.93;87.46;101526.69;5054661;28;20029;-46
2021/11/07 02:15:19;;;;;;;37.25;7.70;;;;;;;11.94;87.42;101514.88;5055947;28;20029;-49
2021/11/07 02:17:45;;;;;;;35.60;8.05;;;;;;;11.95;87.43;101516.56;5055800;28;20448;-50
2021/11/07 02:20:22;;;;;;;38.47;7.18;;;;;;;11.91;87.33;101509.84;5055399;28;20044;-50
2021/11/07 02:22:48;;;;;;;;;;;;;;;11.93;87.41;101513.22;5055771;28;20045;-49
2021/11/07 02:25:13;;;;;;;40.50;7.00;;;;;;;11.91;87.55;101522.50;5055742;28;19916;-48
2021/11/07 02:27:38;;;;;;;31.67;6.55;;;;;;;11.93;87.24;101524.00;5055809;28;20040;-49
2021/11/07 02:30:06;;;;;;;40.03;7.78;;;;;;;11.93;87.06;101517.75;5043614;28;20030;-51
2021/11/07 02:32:31;;;;;;;36.78;8.52;;;;;;;11.95;86.82;101515.72;5035755;28;20452;-48
2021/11/07 02:34:57;;;;;;;25.95;6.05;;;;;;;11.92;83.93;101508.81;5035912;28;20026;-50
2021/11/07 02:37:22;;;;;;;24.95;4.55;;;;;;;11.88;81.37;101502.09;5017806;28;20033;-49
2021/11/07 02:39:47;;;;;;;20.63;5.18;;;;;;;11.81;80.21;101509.16;5017783;28;20056;-49
2021/11/07 02:42:13;;;;;;;23.95;5.45;;;;;;;11.76;81.16;101503.44;5035588;28;20037;-48
2021/11/07 02:44:42;;;;;;;29.17;5.32;;;;;;;11.70;81.71;101499.59;5044385;28;20021;-51
2021/11/07 02:47:09;;;;;;;39.45;7.13;;;;;;;11.67;82.91;101499.13;5055352;28;20040;-48
2021/11/07 02:49:35;;;;;;;37.15;5.35;;;;;;;11.65;82.95;101518.16;5043013;28;20033;-48
2021/11/07 02:52:02;;;;;;;46.13;5.95;;;;;;;11.59;83.67;101503.50;5055224;28;20025;-51
2021/11/07 02:54:28;;;;;;;22.90;4.90;;;;;;;11.58;82.95;101501.81;5055482;28;20040;-49
2021/11/07 02:56:55;;;;;;;30.65;5.00;;;;;;;11.60;82.20;101513.25;5054865;28;20025;-50
2021/11/07 02:59:24;;;;;;;39.47;5.07;;;;;;;11.65;79.99;101510.91;5055284;28;20032;-49
2021/11/07 03:01:51;;;;;;;27.95;4.65;;;;;;;11.65;76.74;101523.53;5055249;28;20526;-51
2021/11/07 03:04:16;;;;;;;39.90;5.22;;;;;;;11.68;75.57;101514.25;5054754;28;20107;-51
2021/11/07 03:06:45;;;;;;;29.45;4.57;;;;;;;11.61;75.32;101528.44;5054974;28;20033;-48
2021/11/07 03:09:13;;;;;;;30.10;4.35;;;;;;;11.60;73.38;101526.75;5054437;28;20029;-48
2021/11/07 03:11:41;;;;;;;30.92;4.18;;;;;;;11.62;74.27;101527.41;5054812;28;20029;-48
2021/11/07 03:14:07;;;;;;;;;;;;;;;11.58;73.06;101517.16;5055551;28;20082;-48
2021/11/07 03:16:33;;;;;;;31.83;4.32;;;;;;;11.61;71.35;101517.66;5054921;28;19912;-48
2021/11/07 03:18:58;;;;;;;31.45;4.65;;;;;;;11.58;70.00;101526.06;5038711;28;20124;-49
2021/11/07 03:21:23;;;;;;;25.88;3.95;;;;;;;11.54;68.87;101530.13;5054531;28;20958;-49
2021/11/07 03:23:50;;;;;;;35.35;4.07;;;;;;;11.51;68.41;101530.47;5054552;28;20040;-49
2021/11/07 03:26:22;;;;;;;25.47;3.00;;;;;;;11.49;67.79;101521.72;5054191;28;20078;-49
2021/11/07 03:28:50;;;;;;;26.50;3.45;;;;;;;11.43;68.15;101517.88;5053397;28;20064;-48
2021/11/07 03:31:35;;;;;;;32.17;3.40;;;;;;;11.42;68.36;101528.81;5054413;28;20079;-48
2021/11/07 03:34:04;;;;;;;28.38;3.38;;;;;;;11.44;68.73;101518.69;5054596;28;20062;-48
2021/11/07 03:36:42;;;;;;;27.33;3.40;;;;;;;11.49;68.73;101520.88;5054640;28;20021;-51
2021/11/07 03:39:08;;;;;;;31.85;3.22;;;;;;;11.47;68.18;101504.88;5053995;28;20090;-48
2021/11/07 03:41:33;;;;;;;37.55;4.07;;;;;;;11.46;68.89;101511.28;5039650;28;20025;-49
2021/11/07 03:43:59;;;;;;;35.30;4.32;;;;;;;11.45;68.64;101512.28;5054145;28;20029;-49
2021/11/07 03:46:24;;;;;;;26.65;3.40;;;;;;;11.40;68.51;101496.66;5054422;28;20469;-49
2021/11/07 03:48:49;;;;;;;28.30;4.13;;;;;;;11.41;68.08;101495.63;5053891;28;20044;-51
2021/11/07 03:51:15;;;;;;;31.95;5.13;;;;;;;11.32;69.26;101490.41;5053925;28;20116;-51
2021/11/07 03:53:41;;;;;;;29.20;3.20;;;;;;;11.29;68.68;101483.50;5054288;28;20096;-48
2021/11/07 03:56:07;;;;;;;20.40;3.30;;;;;;;11.27;69.64;101474.78;5054156;28;20048;-51
2021/11/07 03:58:32;;;;;;;33.70;4.18;;;;;;;11.25;69.71;101484.88;5053576;28;20166;-49
2021/11/07 04:00:58;;;;;;;34.85;3.83;;;;;;;11.21;70.18;101489.75;5053526;28;20452;-48
2021/11/07 04:03:23;;;;;;;29.45;3.60;;;;;;;11.20;69.79;101488.06;5053699;28;20071;-48
2021/11/07 04:05:49;;;;;;;39.45;5.28;;;;;;;11.21;70.19;101500.53;5053889;28;20036;-51
2021/11/07 04:08:14;;;;;;;33.33;4.22;;;;;;;11.20;70.25;101492.63;5047429;28;20037;-48
2021/11/07 04:10:40;;;;;;;28.98;3.75;;;;;;;11.17;71.36;101493.81;5053779;28;20104;-51
2021/11/07 04:13:05;;;;;;;30.63;4.82;;;;;;;11.21;72.13;101497.81;5053729;28;20385;-50
2021/11/07 04:15:32;;;;;;;36.95;5.45;;;;;;;11.18;71.33;101506.25;5053708;28;20021;-49
2021/11/07 04:17:57;;;;;;;38.28;5.95;;;;;;;11.23;71.68;101499.53;5035516;28;20086;-50
2021/11/07 04:20:23;;;;;;;37.80;5.50;;;;;;;11.28;70.95;101481.84;5053595;28;20078;-46
2021/11/07 04:22:49;;;;;;;29.15;4.43;;;;;;;11.28;69.91;101491.78;5052764;28;20522;-48
2021/11/07 04:25:14;;;;;;;33.08;4.90;;;;;;;11.26;70.13;101507.25;5053699;28;20021;-50
2021/11/07 04:27:40;;;;;;;46.65;5.03;;;;;;;11.23;69.61;101491.44;5052942;28;20040;-49
2021/11/07 04:30:07;;;;;;;32.75;4.43;;;;;;;11.26;69.73;101491.09;5053554;28;20044;-47
2021/11/07 04:32:33;;;;;;;41.72;4.50;;;;;;;11.15;69.04;101512.00;5052984;28;20033;-48
2021/11/07 04:34:58;;;;;;;34.97;4.63;;;;;;;11.16;65.90;101512.81;5053425;28;20032;-47
2021/11/07 04:37:24;;;;;;;27.98;3.50;;;;;;;11.17;64.78;101501.88;5053142;28;20021;-48
2021/11/07 04:39:50;;;;;;;35.25;4.97;;;;;;;11.08;65.69;101500.19;5053417;28;20032;-50
2021/11/07 04:42:15;;;;;;;50.38;4.57;;;;;;;11.03;65.07;101491.78;5053292;28;20341;-48
2021/11/07 04:44:41;;;;;;;25.13;4.03;;;;;;;11.01;65.15;101498.38;5052379;28;20025;-48
2021/11/07 04:47:06;;;;;;;32.25;3.95;;;;;;;10.96;65.39;101485.41;5052891;28;20028;-47
2021/11/07 04:49:32;;;;;;;42.80;4.80;;;;;;;10.91;66.37;101491.28;5053403;28;20033;-48
2021/11/07 04:51:58;;;;;;;39.13;3.72;;;;;;;10.90;65.95;101495.00;5035235;28;20102;-51
2021/11/07 04:54:24;;;;;;;32.53;3.80;;;;;;;10.94;66.67;101507.09;5052804;28;20518;-51
2021/11/07 04:56:49;;;;;;;32.15;3.88;;;;;;;11.05;65.64;101502.41;5052857;28;20037;-49
2021/11/07 04:59:15;;;;;;;25.45;3.85;;;;;;;11.05;65.52;101487.06;5053079;28;20037;-48
2021/11/07 05:01:40;;;;;;;31.08;4.07;;;;;;;10.95;64.59;101494.47;5052949;28;20032;-49
2021/11/07 05:04:07;;;;;;;41.45;4.07;;;;;;;11.04;62.67;101503.41;5052023;28;20032;-49
2021/11/07 05:06:33;;;;;;;28.42;4.45;;;;;;;10.99;64.33;101501.22;5053293;28;20490;-49
2021/11/07 05:08:59;;;;;;;35.88;4.72;;;;;;;11.01;64.90;101499.22;5052876;28;20041;-51
2021/11/07 05:11:24;;;;;;;35.63;4.70;;;;;;;11.02;65.67;101506.28;5052810;28;20082;-48
2021/11/07 05:13:50;;;;;;;38.63;5.10;;;;;;;11.02;65.93;101514.34;5052931;28;20029;-51
2021/11/07 05:16:15;;;;;;;33.97;4.10;;;;;;;10.95;65.00;101502.56;5052907;28;20033;-50
2021/11/07 05:18:41;;;;;;;31.15;4.65;;;;;;;10.88;64.05;101510.47;5052619;28;20048;-48
2021/11/07 05:21:06;;;;;;;34.88;3.65;;;;;;;10.79;65.40;101508.78;5052872;28;20032;-50
2021/11/07 05:23:32;;;;;;;43.28;3.83;;;;;;;10.69;64.36;101500.88;5052515;28;20025;-48
2021/11/07 05:25:57;;;;;;;35.42;4.30;;;;;;;10.64;64.93;101505.91;5032793;28;20120;-48
2021/11/07 05:28:23;;;;;;;40.03;4.28;;;;;;;10.63;65.33;101512.28;5051171;28;20423;-50
2021/11/07 05:30:50;;;;;;;31.15;3.97;;;;;;;10.54;65.45;101524.06;5052565;28;20025;-49
2021/11/07 05:33:17;;;;;;;35.17;4.30;;;;;;;10.57;66.34;101517.50;5052910;28;20044;-50
2021/11/07 05:35:42;;;;;;;39.45;6.22;;;;;;;10.55;67.27;101520.34;5056900;28;20037;-51
2021/11/07 05:38:08;;;;;;;40.85;5.07;;;;;;;10.55;68.37;101514.97;5056492;28;20047;-48
2021/11/07 05:40:33;;;;;;;48.28;4.80;;;;;;;10.50;68.85;101520.84;5056682;28;20115;-48
2021/11/07 05:42:58;;;;;;;34.33;4.07;;;;;;;10.48;68.24;101508.59;5056112;28;20025;-50
2021/11/07 05:45:24;;;;;;;34.10;3.65;;;;;;;10.49;67.69;101494.13;5056173;28;20025;-49
2021/11/07 05:47:50;;;;;;;41.40;5.35;;;;;;;10.52;66.63;101515.31;5056143;28;20116;-52
2021/11/07 05:50:18;;;;;;;41.90;5.55;;;;;;;10.51;67.03;101501.00;5056336;28;20083;-52
2021/11/07 05:52:43;;;;;;;42.28;5.93;;;;;;;10.46;67.91;101506.06;5056014;28;20033;-52
2021/11/07 05:55:10;;;;;;;44.58;5.07;;;;;;;10.42;68.20;101514.59;5054476;28;20037;-50
2021/11/07 05:57:35;;;;;;;35.40;3.67;;;;;;;10.39;68.67;101520.31;5049578;28;20025;-51
2021/11/07 06:00:01;;;;;;;37.85;4.22;;;;;;;10.38;67.71;101524.88;5055688;28;20043;-49
2021/11/07 09:28:32;;;;;;;53.05;4.85;;;;;;;13.52;57.53;101580.22;5089919;27;20393;-52
2021/11/07 09:31:14;;;;;;;42.72;5.57;;;;;;;13.39;57.22;101588.13;5090103;28;20040;-49
2021/11/07 09:36:24;;;;;;;42.75;4.32;;;;;;;13.21;57.31;101585.69;5083586;28;20116;-50
2021/11/07 09:38:57;;;;;;;26.40;3.33;;;;;;;13.65;56.56;101582.31;5073973;28;20033;-49
2021/11/07 09:41:34;;;;;;;37.25;4.22;;;;;;;13.80;57.00;101585.88;5069600;28;20391;-49
2021/11/07 09:44:12;;;;;;;31.83;3.50;;;;;;;13.74;56.93;101583.88;5069517;28;20032;-51
2021/11/07 09:49:18;;;;;;;31.80;4.82;;;;;;;13.18;58.40;101586.91;5071654;28;20383;-50
2021/11/07 09:51:47;;;;;;;32.97;3.17;;;;;;;13.18;56.94;101586.06;5069347;28;20376;-49
2021/11/07 09:54:15;;;;;;;41.25;4.50;;;;;;;13.52;56.33;101590.22;5071408;28;20044;-49
2021/11/07 09:56:46;;;;;;;33.05;3.63;;;;;;;13.90;57.06;101592.88;5070241;28;20125;-49
2021/11/07 09:59:13;;;;;;;35.85;4.50;;;;;;;14.08;56.23;101587.94;5082366;28;20079;-49
2021/11/07 10:01:39;;;;;;;29.33;4.07;;;;;;;13.90;56.95;101585.63;5069004;28;20025;-50
2021/11/07 10:04:05;;;;;;;28.33;4.43;;;;;;;13.80;57.49;101596.69;5063971;28;20036;-48
2021/11/07 10:06:44;;;;;;;32.90;5.32;;;;;;;13.75;58.79;101591.00;5048856;28;20021;-49
2021/11/07 10:09:10;;;;;;;36.72;4.40;;;;;;;13.54;58.13;101602.53;5041019;28;20021;-52
2021/11/07 10:11:42;;;;;;;37.03;4.82;;;;;;;13.29;58.85;101599.16;5068579;28;20403;-49
2021/11/07 10:14:18;;;;;;;45.47;4.72;;;;;;;13.12;59.20;101603.00;5069221;28;20037;-48
2021/11/07 10:16:51;;;;;;;36.58;4.80;;;;;;;13.01;59.64;101593.47;5068933;28;20075;-49
2021/11/07 10:19:35;;;;;;;36.90;4.57;;;;;;;12.93;60.89;101599.75;5069021;28;20159;-52
2021/11/07 10:22:01;;;;;;;52.25;5.63;;;;;;;12.91;60.22;101590.97;5068590;28;20036;-50
2021/11/07 10:24:33;;;;;;;43.55;4.47;;;;;;;13.02;59.54;101588.88;5067175;28;20021;-50
2021/11/07 10:27:05;;;;;;;30.42;4.72;;;;;;;13.21;58.72;101590.25;5068565;28;20045;-49
2021/11/07 10:29:38;;;;;;;33.03;4.55;;;;;;;13.11;59.49;101594.06;5068488;28;20037;-52
2021/11/07 10:34:52;;;;;;;44.30;5.13;;;;;;;12.77;59.57;101593.59;5068708;28;20039;-48
2021/11/07 10:40:28;;;;;;;43.00;5.13;;;;;;;13.30;58.62;101600.88;5054543;28;20101;-48
2021/11/07 10:53:57;;;;;;;32.00;4.53;;;;;;;14.31;54.83;101605.94;5054315;28;20103;-48
2021/11/07 10:56:23;;;;;;;37.95;4.95;;;;;;;14.16;55.34;101601.38;5055298;28;20055;-49
2021/11/07 10:58:50;;;;;;;48.60;5.70;;;;;;;14.09;55.10;101599.63;5054573;28;20033;-51
2021/11/07 11:01:19;;;;;;;37.90;5.18;;;;;;;13.83;55.50;101599.03;5054542;28;20027;-49
2021/11/07 11:03:50;;;;;;;49.85;4.82;;;;;;;13.95;56.00;101585.03;5054494;28;20100;-51
2021/11/07 11:06:16;;;;;;;48.03;5.25;;;;;;;14.01;54.24;101589.72;5054646;28;20480;-50
2021/11/07 11:08:46;;;;;;;38.17;4.47;;;;;;;14.11;54.39;101586.72;5054405;28;20075;-49
2021/11/07 11:14:44;;;;;;;41.22;6.22;;;;;;;14.25;54.50;101591.28;5054765;28;20120;-49
2021/11/07 11:24:50;;;;;;;42.83;4.78;;;;;;;14.81;54.04;101598.88;5054423;28;20040;-51
2021/11/07 11:27:30;;;;;;;41.03;5.45;;;;;;;14.57;54.18;101603.59;5045096;28;20084;-49
2021/11/07 11:30:11;;;;;;;60.20;5.75;;;;;;;14.57;55.17;101611.72;5035444;28;20041;-52
2021/11/07 11:32:47;;;;;;;44.25;6.88;;;;;;;14.70;55.47;101608.34;5035399;28;20468;-52
2021/11/07 11:45:36;;;;;;;53.00;5.25;;;;;;;14.16;55.94;101612.19;5031341;28;20038;-50
2021/11/07 11:51:36;;;;;;;43.65;5.75;;;;;;;14.13;55.25;101601.75;5030246;28;20033;-50
2021/11/07 12:00:28;;;;;;;50.67;5.55;;;;;;;13.50;56.59;101597.66;5048819;28;20577;-50
2021/11/07 12:03:03;;;;;;;65.97;6.95;;;;;;;13.26;58.26;101601.38;5033049;28;20056;-50
2021/11/07 12:11:02;;;;;;;54.78;6.30;;;;;;;13.35;58.30;101592.22;5034334;28;20037;-50
2021/11/07 12:16:11;;;;;;;56.92;5.90;;;;;;;13.43;57.94;101594.84;5053354;28;20722;-50
2021/11/07 12:19:02;;;;;;;57.50;5.85;;;;;;;13.21;58.42;101596.50;5051524;28;20028;-47
2021/11/07 12:21:50;;;;;;;40.78;5.72;;;;;;;13.00;61.15;101604.44;5038986;28;20033;-49
2021/11/07 12:24:19;;;;;;;51.60;5.75;;;;;;;12.82;64.38;101602.00;5033374;28;20496;-47
2021/11/07 12:26:45;;;;;;;70.38;7.75;;;;;;;12.77;63.72;101601.69;5046223;28;20080;-48
2021/11/07 12:29:11;;;;;;;55.88;6.07;;;;;;;12.77;61.78;101594.47;5046983;28;20485;-49
2021/11/07 12:32:00;;;;;;;43.33;5.32;;;;;;;12.78;63.05;101598.84;5049908;28;20040;-50
2021/11/07 12:34:53;;;;;;;44.17;5.20;;;;;;;12.92;60.78;101603.47;5048362;28;20033;-49
2021/11/07 12:40:39;;;;;;;50.25;5.38;;;;;;;12.84;60.22;101587.31;5048532;28;20400;-48
2021/11/07 12:43:10;;;;;;;56.30;7.20;;;;;;;12.77;62.18;101604.41;5049655;28;20475;-49
2021/11/07 12:45:39;;;;;;;50.42;6.05;;;;;;;12.64;62.13;101599.59;5035869;28;20124;-48
2021/11/07 12:48:08;;;;;;;50.85;5.65;;;;;;;12.63;62.21;101603.31;5043548;28;20087;-50
2021/11/07 12:50:51;;;;;;;59.42;7.63;;;;;;;12.96;62.12;101587.75;5035387;28;20052;-50
2021/11/07 12:53:17;;;;;;;67.95;7.10;;;;;;;12.96;60.87;101594.00;5020673;28;20076;-48
2021/11/07 12:55:42;;;;;;;52.42;5.80;;;;;;;13.04;60.21;101589.56;5032496;28;20029;-50
2021/11/07 12:58:08;;;;;;;56.40;6.57;;;;;;;12.90;61.10;101597.41;5048161;28;20032;-47
2021/11/07 13:00:34;;;;;;;57.67;5.80;;;;;;;12.73;62.57;101598.53;5046644;28;20029;-48
2021/11/07 13:03:11;;;;;;;52.33;6.07;;;;;;;12.59;62.03;101593.88;5028390;28;20131;-48
2021/11/07 13:05:38;;;;;;;55.35;6.22;;;;;;;12.53;63.23;101598.09;5045670;28;20110;-48
2021/11/07 13:08:31;;;;;;;60.92;7.38;;;;;;;12.52;64.21;101591.88;5047841;28;20033;-48
2021/11/07 13:21:41;;;;;;;68.68;7.70;;;;;;;13.42;60.42;101592.31;5037011;28;20041;-51
2021/11/07 13:24:54;;;;;;;66.75;7.22;;;;;;;13.89;59.73;101604.72;5035484;28;20038;-49
2021/11/07 13:27:24;;;;;;;51.33;5.18;;;;;;;13.81;56.85;101598.38;5034817;28;20049;-47
2021/11/07 13:30:03;;;;;;;50.65;6.97;;;;;;;13.43;57.66;101589.44;5045151;28;20074;-47
2021/11/07 13:32:32;;;;;;;55.22;5.18;;;;;;;13.01;56.68;101598.03;5042551;28;20030;-45
2021/11/07 13:35:06;;;;;;;58.47;5.53;;;;;;;12.67;59.00;101593.84;5040743;28;20060;-47
2021/11/07 13:37:42;;;;;;;57.20;6.72;;;;;;;12.48;59.49;101595.09;5038245;28;20030;-49
2021/11/07 13:40:15;;;;;;;67.20;6.65;;;;;;;12.40;60.47;101596.00;5043244;28;20040;-47
2021/11/07 13:42:42;;;;;;;58.65;6.15;;;;;;;12.38;60.82;101589.94;5032189;28;20116;-49
2021/11/07 13:45:10;;;;;;;85.55;8.02;;;;;;;12.39;59.52;101588.06;5032472;28;20095;-47
2021/11/07 13:47:42;;;;;;;58.33;5.50;;;;;;;12.42;60.75;101590.41;5032400;28;20129;-50
2021/11/07 13:50:11;;;;;;;63.22;5.72;;;;;;;12.59;59.61;101580.38;5030914;28;20108;-46
2021/11/07 13:52:39;;;;;;;61.10;5.78;;;;;;;12.93;58.37;101588.13;5040915;28;20029;-49
2021/11/07 13:55:13;;;;;;;55.38;5.45;;;;;;;13.04;57.63;101589.56;5038696;28;20025;-48
2021/11/07 13:57:38;;;;;;;59.28;6.88;;;;;;;13.21;57.53;101591.09;5021080;28;20510;-46
2021/11/07 14:00:08;;;;;;;42.83;5.32;;;;;;;13.18;56.47;101596.88;5032166;28;20120;-49
2021/11/07 14:02:34;;;;;;;45.80;5.40;;;;;;;13.15;57.31;101597.25;5042718;28;20537;-46
2021/11/07 14:05:00;;;;;;;56.20;6.15;;;;;;;13.22;56.76;101600.91;5036557;28;20029;-49
2021/11/07 14:07:27;;;;;;;65.47;6.03;;;;;;;13.08;57.86;101615.19;5030847;28;20112;-48
2021/11/07 14:10:04;;;;;;;59.47;6.07;;;;;;;12.86;58.67;101604.19;5032256;28;20101;-49
2021/11/07 14:12:33;;;;;;;54.80;6.18;;;;;;;12.68;57.00;101592.81;5042460;28;20029;-47
2021/11/07 14:15:22;;;;;;;45.85;5.50;;;;;;;12.43;56.55;101602.91;5054060;28;20025;-46
2021/11/07 14:17:49;;;;;;;54.20;5.55;;;;;;;12.14;58.02;101608.91;5052408;28;20112;-48
2021/11/07 14:20:32;;;;;;;64.40;6.43;;;;;;;12.01;59.85;101615.69;5044127;28;20025;-47
2021/11/07 14:23:02;;;;;;;48.40;6.22;;;;;;;11.91;59.17;101609.66;5035136;28;20043;-48
2021/11/07 14:25:28;;;;;;;57.08;6.65;;;;;;;11.95;58.97;101616.38;5035044;28;20036;-48
2021/11/07 14:28:00;;;;;;;52.50;5.68;;;;;;;12.09;58.64;101604.03;5034918;28;20400;-48
2021/11/07 14:30:34;;;;;;;67.47;7.30;;;;;;;12.23;59.97;101605.16;5039045;28;20033;-47
2021/11/07 14:33:10;;;;;;;44.13;5.55;;;;;;;12.41;60.34;101611.16;5046473;28;20040;-48
2021/11/07 14:35:35;;;;;;;60.85;6.57;;;;;;;12.48;60.19;101628.38;5047961;28;20041;-48
2021/11/07 14:38:10;;;;;;;54.72;5.82;;;;;;;12.69;59.68;101624.19;5034952;28;20039;-49
2021/11/07 14:43:34;;;;;;;52.25;6.53;;;;;;;12.63;57.69;101627.59;5033159;28;20369;-47
2021/11/07 14:54:03;;;;;;;46.03;5.68;;;;;;;12.01;59.44;101628.34;5034647;28;20033;-50
2021/11/07 14:59:26;;;;;;;60.88;7.82;;;;;;;11.91;61.46;101638.47;5031753;28;20043;-50
2021/11/07 15:02:02;;;;;;;56.85;5.60;;;;;;;11.87;60.57;101624.47;5034600;28;20037;-49
2021/11/07 15:04:48;;;;;;;53.28;6.45;;;;;;;11.60;63.79;101634.59;5051407;28;20495;-49
2021/11/07 15:07:27;;;;;;;48.50;6.57;;;;;;;11.50;65.00;101630.38;5043241;28;20045;-48
2021/11/07 15:13:06;;;;;;;50.92;5.10;;;;;;;11.25;63.86;101625.00;5050030;28;20029;-48
2021/11/07 15:18:43;;;;;;;56.80;5.57;;;;;;;11.11;63.34;101618.41;5042834;28;20041;-47
2021/11/07 15:21:35;;;;;;;51.47;5.55;;;;;;;11.09;64.91;101631.22;5038743;28;20443;-46
2021/11/07 15:24:06;;;;;;;71.15;6.85;;;;;;;11.05;66.18;101612.84;5030576;28;20095;-45
2021/11/07 15:26:44;;;;;;;57.45;5.07;;;;;;;11.04;66.31;101617.38;5030814;28;20057;-47
2021/11/07 15:29:19;;;;;;;70.47;8.00;;;;;;;11.07;65.93;101616.22;5034351;28;20048;-45
2021/11/07 15:31:45;;;;;;;65.00;8.38;;;;;;;11.07;65.83;101627.81;5037674;28;20029;-48
2021/11/07 15:34:14;;;;;;;58.40;6.03;;;;;;;11.07;64.42;101629.69;5032540;28;20167;-47
2021/11/07 15:36:44;;;;;;;57.42;6.53;;;;;;;11.09;64.46;101625.81;5034605;28;20033;-47
2021/11/07 15:39:21;;;;;;;48.03;6.25;;;;;;;11.11;65.24;101626.50;5031182;28;20033;-50
2021/11/07 15:42:03;;;;;;;61.22;5.95;;;;;;;11.10;65.26;101624.78;5042888;28;20171;-46
2021/11/07 15:44:31;;;;;;;57.35;5.47;;;;;;;11.01;64.66;101625.81;5049167;28;20067;-49
2021/11/07 15:47:00;;;;;;;;;;;;;;;11.01;64.20;101639.28;5050880;28;20075;-47
2021/11/07 15:49:25;;;;;;;56.33;5.82;;;;;;;10.98;65.25;101634.22;5030742;28;19917;-50
2021/11/07 15:55:06;;;;;;;47.92;5.25;;;;;;;10.86;65.40;101636.38;5033812;28;20043;-48
2021/11/07 15:57:50;;;;;;;53.33;5.93;;;;;;;10.88;65.22;101641.59;5028017;28;20045;-48
2021/11/07 16:08:15;;;;;;;46.40;5.10;;;;;;;10.90;65.47;101664.66;5012070;28;20540;-49
2021/11/07 16:11:19;;;;;;;35.13;4.90;;;;;;;10.82;65.94;101677.25;5040052;28;20049;-48
2021/11/07 16:16:29;;;;;;;59.17;6.07;;;;;;;10.59;67.04;101677.84;5030155;28;20451;-48
2021/11/07 16:18:56;;;;;;;53.33;5.40;;;;;;;10.50;67.16;101670.72;5028997;28;20052;-49
2021/11/07 16:21:24;;;;;;;60.53;6.72;;;;;;;10.47;67.77;101679.13;5030330;28;20029;-48
2021/11/07 16:23:49;;;;;;;52.08;5.20;;;;;;;10.46;69.18;101677.44;5030270;28;20021;-49
2021/11/07 16:26:16;;;;;;;55.50;7.20;;;;;;;10.44;68.70;101674.91;5033378;28;20056;-51
2021/11/07 16:28:44;;;;;;;37.87;4.67;;;;;;;10.38;67.22;101683.63;5040768;28;20392;-49
2021/11/07 16:31:12;;;;;;;43.75;4.68;;;;;;;10.37;66.50;101681.94;5032601;28;20036;-48
2021/11/07 16:33:46;;;;;;;32.50;5.00;;;;;;;10.30;64.72;101702.44;5049118;28;20434;-49
2021/11/07 16:36:14;;;;;;;40.05;5.70;;;;;;;10.26;64.44;101696.47;5045875;28;20166;-49
2021/11/07 16:38:55;;;;;;;;;;;;;;;10.25;65.25;101693.94;5035728;28;20507;-46
2021/11/07 16:43:48;;;;;;;32.17;4.00;;;;;;;10.20;65.11;101690.88;5030269;28;20484;-50
2021/11/07 16:46:17;;;;;;;54.05;5.28;;;;;;;10.18;65.79;101691.03;5030561;28;20041;-51
2021/11/07 16:48:45;;;;;;;46.78;5.20;;;;;;;10.13;66.62;101709.50;5030242;28;20504;-48
2021/11/07 16:53:53;;;;;;;41.92;4.85;;;;;;;10.17;66.61;101699.28;5030330;28;20086;-48
2021/11/07 16:56:19;;;;;;;49.28;5.28;;;;;;;10.23;68.24;101721.00;5030119;28;20124;-47
2021/11/07 17:01:11;;;;;;;50.22;4.82;;;;;;;10.21;68.89;101717.63;5029902;28;20508;-48
2021/11/07 17:03:37;;;;;;;51.42;5.45;;;;;;;10.22;68.74;101716.63;5029593;28;20467;-48
2021/11/07 17:06:24;;;;;;;46.42;5.50;;;;;;;10.22;68.82;101708.56;5029234;28;20063;-48